Time;durP1;ratioP1;P1;durP2;ratioP2;P2;SDS_P1;SDS_P2;PMS_P1;PMS_P2;Temp;Humidity;BMP_temperature;BMP_pressure;BME280_temperature;BME280_humidity;BME280_pressure;Samples;Min_cycle;Max_cycle;Signal;HPM_P1;HPM_P2
2021/04/21 00:00:53;;;;;;;;;;;23.10;48.40;;;;;;1506511;77;721;-67
2021/04/21 00:02:54;;;;;;;;;;;23.10;48.40;;;;;;1501519;77;1124;-68
2021/04/21 00:04:56;;;;;;;;;;;23.10;48.40;;;;;;1500144;77;1947;-69
2021/04/21 00:06:58;;;;;;;;;;;23.10;48.40;;;;;;1491869;78;845;-66
2021/04/21 00:09:00;;;;;;;;;;;23.10;48.40;;;;;;1506158;77;744;-67
2021/04/21 00:11:02;;;;;;;;;;;23.10;48.40;;;;;;1503370;77;742;-67
2021/04/21 00:13:04;;;;;;;;;;;23.10;48.40;;;;;;1502050;77;1179;-65
2021/04/21 00:15:07;;;;;;;;;;;23.10;48.30;;;;;;1479939;78;1422;-66
2021/04/21 00:17:08;;;;;;;;;;;23.10;48.60;;;;;;1505653;77;743;-67
2021/04/21 00:19:10;;;;;;;;;;;23.10;48.60;;;;;;1498775;77;770;-67
2021/04/21 00:21:13;;;;;;;;;;;23.10;48.40;;;;;;1504933;77;663;-66
2021/04/21 00:23:15;;;;;;;;;;;23.10;48.40;;;;;;1505344;77;1146;-66
2021/04/21 00:25:17;;;;;;;;;;;23.10;48.30;;;;;;1507362;77;1944;-64
2021/04/21 00:27:18;;;;;;;;;;;23.10;48.20;;;;;;1505148;77;705;-66
2021/04/21 00:29:20;;;;;;;;;;;23.10;48.10;;;;;;1509718;77;733;-66
2021/04/21 00:31:22;;;;;;;;;;;23.10;48.30;;;;;;1500604;77;708;-66
2021/04/21 00:33:25;;;;;;;;;;;23.10;48.20;;;;;;1505375;77;1151;-66
2021/04/21 00:35:31;;;;;;;;;;;23.10;48.10;;;;;;1508573;77;877;-63
2021/04/21 00:37:33;;;;;;;;;;;23.10;48.10;;;;;;1501472;77;813;-64
2021/04/21 00:39:35;;;;;;;;;;;23.10;48.10;;;;;;1508480;77;816;-63
2021/04/21 00:41:50;;;;;;;;;;;23.10;48.10;;;;;;1500980;77;744;-63
2021/04/21 00:43:54;;;;;;;;;;;23.10;48.00;;;;;;1502534;77;1957;-64
2021/04/21 00:46:10;;;;;;;;;;;23.20;48.00;;;;;;1511651;77;716;-63
2021/04/21 00:48:28;;;;;;;;;;;23.00;48.00;;;;;;1502840;77;799;-65
2021/04/21 00:50:41;;;;;;;;;;;23.10;48.30;;;;;;1502082;77;805;-64
2021/04/21 00:52:54;;;;;;;;;;;23.00;48.00;;;;;;1507414;77;715;-65
2021/04/21 00:55:13;;;;;;;;;;;23.10;48.20;;;;;;1508422;77;747;-65
2021/04/21 00:57:25;;;;;;;;;;;23.10;48.40;;;;;;1505465;77;1865;-65
2021/04/21 00:59:45;;;;;;;;;;;23.10;48.40;;;;;;1479134;77;1691;-62
2021/04/21 01:01:47;;;;;;;;;;;23.00;48.10;;;;;;1502579;77;820;-63
2021/04/21 01:03:51;;;;;;;;;;;23.00;48.10;;;;;;1507482;77;1068;-63
2021/04/21 01:06:07;;;;;;;;;;;23.00;48.20;;;;;;1501135;77;1905;-64
2021/04/21 01:08:13;;;;;;;;;;;23.00;48.20;;;;;;1507401;77;1792;-64
2021/04/21 01:10:15;;;;;;;;;;;23.10;48.30;;;;;;1505331;77;868;-66
2021/04/21 01:12:17;;;;;;;;;;;23.00;48.10;;;;;;1502430;77;761;-64
2021/04/21 01:14:21;;;;;;;;;;;23.00;48.00;;;;;;1505843;77;1182;-64
2021/04/21 01:16:24;;;;;;;;;;;23.10;48.10;;;;;;1501209;78;754;-65
2021/04/21 01:18:26;;;;;;;;;;;23.10;48.00;;;;;;1495081;77;785;-66
2021/04/21 01:20:29;;;;;;;;;;;23.10;48.00;;;;;;1511426;77;724;-66
2021/04/21 01:22:39;;;;;;;;;;;23.10;48.00;;;;;;1503548;77;1103;-65
2021/04/21 01:24:54;;;;;;;;;;;23.10;47.90;;;;;;1508894;77;1948;-65
2021/04/21 01:26:58;;;;;;;;;;;23.10;47.80;;;;;;1503857;77;831;-65
2021/04/21 01:29:00;;;;;;;;;;;23.10;47.90;;;;;;1503084;77;713;-66
2021/04/21 01:31:02;;;;;;;;;;;23.10;47.90;;;;;;1519684;73;215393;-59
2021/04/21 01:33:05;;;;;;;;;;;23.10;47.80;;;;;;1514354;77;720;-60
2021/04/21 01:35:08;;;;;;;;;;;23.10;47.70;;;;;;1549561;75;1946;-60
2021/04/21 01:37:10;;;;;;;;;;;23.10;47.80;;;;;;1508680;77;744;-60
2021/04/21 01:39:12;;;;;;;;;;;23.20;47.80;;;;;;1527172;76;1158;-60
2021/04/21 01:41:16;;;;;;;;;;;23.10;47.80;;;;;;1512602;77;762;-59
2021/04/21 01:43:21;;;;;;;;;;;23.10;47.80;;;;;;1522820;77;815;-58
2021/04/21 01:45:24;;;;;;;;;;;23.20;47.80;;;;;;1542370;75;1936;-59
2021/04/21 01:47:26;;;;;;;;;;;23.10;47.80;;;;;;1540746;75;816;-60
2021/04/21 01:49:30;;;;;;;;;;;23.10;47.90;;;;;;1535937;75;1097;-59
2021/04/21 01:51:32;;;;;;;;;;;23.10;47.90;;;;;;1540601;75;1737;-60
2021/04/21 01:53:45;;;;;;;;;;;23.00;47.80;;;;;;1516297;77;729;-59
2021/04/21 01:55:48;;;;;;;;;;;23.10;48.00;;;;;;1541671;75;862;-59
2021/04/21 01:57:56;;;;;;;;;;;23.10;48.00;;;;;;1574828;74;736;-59
2021/04/21 02:00:08;;;;;;;;;;;23.10;48.00;;;;;;1573298;74;1136;-59
2021/04/21 02:02:12;;;;;;;;;;;23.10;48.00;;;;;;1525021;75;747;-58
2021/04/21 02:04:15;;;;;;;;;;;23.10;48.00;;;;;;1574611;74;931;-59
2021/04/21 02:06:28;;;;;;;;;;;23.00;47.90;;;;;;1568128;74;1781;-59
2021/04/21 02:08:34;;;;;;;;;;;23.10;48.00;;;;;;1573379;74;831;-59
2021/04/21 02:10:49;;;;;;;;;;;23.10;47.90;;;;;;1572150;74;1165;-59
2021/04/21 02:12:53;;;;;;;;;;;23.10;48.00;;;;;;1572216;74;727;-60
2021/04/21 02:14:59;;;;;;;;;;;23.10;47.90;;;;;;1567401;74;739;-59
2021/04/21 02:17:19;;;;;;;;;;;23.10;47.90;;;;;;1565989;74;956;-59
2021/04/21 02:19:32;;;;;;;;;;;23.10;48.10;;;;;;1570068;74;1160;-60
2021/04/21 02:21:52;;;;;;;;;;;23.10;48.10;;;;;;1572496;74;781;-60
2021/04/21 02:24:01;;;;;;;;;;;23.00;47.90;;;;;;1566589;74;918;-60
2021/04/21 02:26:05;;;;;;;;;;;23.10;48.20;;;;;;1512578;75;1937;-60
2021/04/21 02:28:24;;;;;;;;;;;23.10;48.10;;;;;;1568776;74;660;-59
2021/04/21 02:30:28;;;;;;;;;;;23.10;48.10;;;;;;1573180;74;1100;-59
2021/04/21 02:32:37;;;;;;;;;;;23.10;48.00;;;;;;1572096;74;2174;-59
2021/04/21 02:34:50;;;;;;;;;;;23.10;48.10;;;;;;1566553;74;2146;-56
2021/04/21 02:37:11;;;;;;;;;;;23.10;48.10;;;;;;1562922;74;882;-59
2021/04/21 02:39:14;;;;;;;;;;;23.00;48.10;;;;;;1564418;74;1102;-59
2021/04/21 02:41:17;;;;;;;;;;;23.10;48.40;;;;;;1564345;74;750;-54
2021/04/21 02:43:20;;;;;;;;;;;23.10;48.40;;;;;;1572297;74;706;-60
2021/04/21 02:45:24;;;;;;;;;;;23.10;48.20;;;;;;1580247;74;1930;-59
2021/04/21 02:47:33;;;;;;;;;;;23.10;48.20;;;;;;1575776;74;1356;-60
2021/04/21 02:49:48;;;;;;;;;;;23.10;48.10;;;;;;1571493;74;1133;-59
2021/04/21 02:52:04;;;;;;;;;;;23.10;48.10;;;;;;1572284;74;721;-57
2021/04/21 02:54:17;;;;;;;;;;;23.10;48.10;;;;;;1582560;74;743;-56
2021/04/21 02:56:26;;;;;;;;;;;23.10;48.10;;;;;;1566656;74;2070;-59
2021/04/21 02:58:33;;;;;;;;;;;23.10;48.10;;;;;;1570415;74;785;-59
2021/04/21 03:00:54;;;;;;;;;;;23.10;48.10;;;;;;1571186;74;1846;-57
2021/04/21 03:03:10;;;;;;;;;;;23.10;48.10;;;;;;1570836;74;879;-59
2021/04/21 03:05:13;;;;;;;;;;;23.10;48.00;;;;;;1559258;74;1951;-59
2021/04/21 03:07:22;;;;;;;;;;;23.10;48.00;;;;;;1567668;74;1068;-54
2021/04/21 03:09:38;;;;;;;;;;;23.10;48.00;;;;;;1571178;75;1922;-60
2021/04/21 03:11:40;;;;;;;;;;;23.10;48.00;;;;;;1565085;74;710;-57
2021/04/21 03:13:43;;;;;;;;;;;23.10;47.90;;;;;;1578341;74;760;-59
2021/04/21 03:15:49;;;;;;;;;;;23.10;47.90;;;;;;1560745;74;1561;-60
2021/04/21 03:17:52;;;;;;;;;;;23.10;48.00;;;;;;1574154;74;695;-60
2021/04/21 03:19:55;;;;;;;;;;;23.20;47.90;;;;;;1563571;74;1117;-57
2021/04/21 03:22:01;;;;;;;;;;;23.20;47.90;;;;;;1567404;74;1756;-60
2021/04/21 03:24:05;;;;;;;;;;;23.10;47.80;;;;;;1573591;74;694;-56
2021/04/21 03:26:07;;;;;;;;;;;23.10;47.80;;;;;;1561898;74;1914;-58
2021/04/21 03:28:10;;;;;;;;;;;23.10;47.90;;;;;;1572375;74;703;-57
2021/04/21 03:30:13;;;;;;;;;;;23.10;47.90;;;;;;1571411;74;1140;-60
2021/04/21 03:32:17;;;;;;;;;;;23.20;47.80;;;;;;1565477;74;813;-57
2021/04/21 03:34:19;;;;;;;;;;;23.20;47.80;;;;;;1506396;77;868;-60
2021/04/21 03:36:20;;;;;;;;;;;23.20;47.80;;;;;;1532906;75;765;-60
2021/04/21 03:38:22;;;;;;;;;;;23.10;47.70;;;;;;1540517;75;801;-60
2021/04/21 03:40:24;;;;;;;;;;;23.10;47.70;;;;;;1528921;75;1092;-59
2021/04/21 03:42:26;;;;;;;;;;;23.10;47.60;;;;;;1542627;75;755;-60
2021/04/21 03:44:28;;;;;;;;;;;23.20;47.70;;;;;;1576519;74;854;-60
2021/04/21 03:46:30;;;;;;;;;;;23.20;47.70;;;;;;1575390;74;1954;-59
2021/04/21 03:48:34;;;;;;;;;;;23.10;47.70;;;;;;1539226;75;756;-57
2021/04/21 03:50:36;;;;;;;;;;;23.10;47.70;;;;;;1512079;77;1089;-60
2021/04/21 03:52:40;;;;;;;;;;;23.20;47.70;;;;;;1518154;77;863;-59
2021/04/21 03:54:41;;;;;;;;;;;23.20;47.70;;;;;;1525895;77;727;-60
2021/04/21 03:56:43;;;;;;;;;;;23.10;47.60;;;;;;1559175;74;863;-59
2021/04/21 03:58:46;;;;;;;;;;;23.10;47.60;;;;;;1539210;75;1152;-59
2021/04/21 04:00:50;;;;;;;;;;;23.20;47.60;;;;;;1537348;76;775;-60
2021/04/21 04:02:52;;;;;;;;;;;23.20;47.70;;;;;;1560903;74;887;-60
2021/04/21 04:04:56;;;;;;;;;;;23.20;47.60;;;;;;1561211;74;1920;-59
2021/04/21 04:06:58;;;;;;;;;;;23.10;47.60;;;;;;1559282;74;722;-59
2021/04/21 04:09:03;;;;;;;;;;;23.20;47.60;;;;;;1547702;74;1152;-59
2021/04/21 04:11:05;;;;;;;;;;;23.20;47.70;;;;;;1547799;74;744;-58
2021/04/21 04:13:09;;;;;;;;;;;23.10;47.80;;;;;;1553647;74;626;-57
2021/04/21 04:15:12;;;;;;;;;;;23.10;47.80;;;;;;1535387;76;718;-57
2021/04/21 04:17:14;;;;;;;;;;;23.10;47.80;;;;;;1512477;77;746;-58
2021/04/21 04:19:16;;;;;;;;;;;23.10;47.80;;;;;;1533624;75;1193;-59
2021/04/21 04:21:18;;;;;;;;;;;23.20;47.90;;;;;;1544866;74;870;-59
2021/04/21 04:23:20;;;;;;;;;;;23.10;47.90;;;;;;1553788;74;761;-57
2021/04/21 04:25:22;;;;;;;;;;;23.10;47.90;;;;;;1557800;74;1939;-57
2021/04/21 04:27:25;;;;;;;;;;;23.20;48.00;;;;;;1548224;74;766;-56
2021/04/21 04:29:27;;;;;;;;;;;23.20;48.00;;;;;;1552826;74;1132;-59
2021/04/21 04:31:28;;;;;;;;;;;23.10;47.90;;;;;;1553372;74;782;-58
2021/04/21 04:33:31;;;;;;;;;;;23.10;47.90;;;;;;1543427;74;755;-55
2021/04/21 04:35:33;;;;;;;;;;;23.10;47.80;;;;;;1558407;74;718;-58
2021/04/21 04:37:37;;;;;;;;;;;23.10;47.80;;;;;;1568407;74;732;-58
2021/04/21 04:39:39;;;;;;;;;;;23.10;47.90;;;;;;1547563;74;1265;-58
2021/04/21 04:41:41;;;;;;;;;;;23.10;48.00;;;;;;1554657;74;785;-58
2021/04/21 04:43:43;;;;;;;;;;;23.10;48.00;;;;;;1548383;74;742;-58
2021/04/21 04:45:46;;;;;;;;;;;23.10;47.90;;;;;;1557356;74;1935;-57
2021/04/21 04:47:49;;;;;;;;;;;23.10;48.00;;;;;;1554478;74;734;-57
2021/04/21 04:49:53;;;;;;;;;;;23.00;47.80;;;;;;1548577;74;1132;-56
2021/04/21 04:51:55;;;;;;;;;;;23.00;47.90;;;;;;1547695;74;1416;-59
2021/04/21 04:53:57;;;;;;;;;;;22.90;47.80;;;;;;1551542;74;753;-59
2021/04/21 04:55:59;;;;;;;;;;;22.90;47.70;;;;;;1549340;74;704;-59
2021/04/21 04:58:01;;;;;;;;;;;22.90;47.60;;;;;;1547621;74;745;-59
2021/04/21 05:00:04;;;;;;;;;;;22.80;47.50;;;;;;1549494;74;1110;-58
2021/04/21 05:02:07;;;;;;;;;;;22.80;47.50;;;;;;1547127;74;779;-58
2021/04/21 05:04:09;;;;;;;;;;;22.80;47.60;;;;;;1547434;74;726;-58
2021/04/21 05:06:12;;;;;;;;;;;22.60;47.60;;;;;;1548249;74;1945;-59
2021/04/21 05:08:16;;;;;;;;;;;22.60;47.20;;;;;;1546045;74;732;-59
2021/04/21 05:10:18;;;;;;;;;;;22.60;47.30;;;;;;1539114;74;1215;-58
2021/04/21 05:12:21;;;;;;;;;;;22.50;47.40;;;;;;1555806;74;785;-57
2021/04/21 05:14:23;;;;;;;;;;;22.50;47.40;;;;;;1553630;74;774;-55
2021/04/21 05:16:27;;;;;;;;;;;22.60;47.20;;;;;;1547613;74;779;-59
2021/04/21 05:18:36;;;;;;;;;;;22.60;46.80;;;;;;1560558;74;772;-57
2021/04/21 05:20:56;;;;;;;;;;;22.50;47.20;;;;;;1550853;74;1049;-59
2021/04/21 05:23:16;;;;;;;;;;;22.60;47.20;;;;;;1545664;74;745;-58
2021/04/21 05:25:36;;;;;;;;;;;22.60;47.20;;;;;;1546262;74;801;-56
2021/04/21 05:27:49;;;;;;;;;;;22.60;47.50;;;;;;1549317;74;748;-57
2021/04/21 05:29:55;;;;;;;;;;;22.50;47.50;;;;;;1545957;74;1162;-58
2021/04/21 05:31:58;;;;;;;;;;;22.60;47.00;;;;;;1546331;74;1891;-59
2021/04/21 05:34:14;;;;;;;;;;;22.60;47.30;;;;;;1537766;74;1464;-56
2021/04/21 05:36:17;;;;;;;;;;;22.80;47.10;;;;;;1554931;74;731;-56
2021/04/21 05:38:21;;;;;;;;;;;22.90;47.10;;;;;;1548700;74;797;-58
2021/04/21 05:40:41;;;;;;;;;;;23.00;47.00;;;;;;1543091;74;1138;-57
2021/04/21 05:43:01;;;;;;;;;;;23.00;46.90;;;;;;1554541;74;745;-57
2021/04/21 05:45:14;;;;;;;;;;;23.00;46.90;;;;;;1548763;74;749;-58
2021/04/21 05:47:18;;;;;;;;;;;23.00;46.90;;;;;;1540320;74;1918;-59
2021/04/21 05:49:30;;;;;;;;;;;23.00;46.90;;;;;;1544502;74;1107;-58
2021/04/21 05:51:46;;;;;;;;;;;23.00;47.00;;;;;;1551225;74;959;-58
2021/04/21 05:53:49;;;;;;;;;;;23.00;47.20;;;;;;1551634;74;698;-60
2021/04/21 05:56:11;;;;;;;;;;;23.00;47.40;;;;;;1558442;74;930;-56
2021/04/21 05:58:17;;;;;;;;;;;22.90;47.50;;;;;;1557104;74;726;-56
2021/04/21 06:00:24;;;;;;;;;;;22.90;47.40;;;;;;1548443;74;1128;-56
2021/04/21 06:02:26;;;;;;;;;;;22.90;47.80;;;;;;1545079;74;670;-56
2021/04/21 06:04:28;;;;;;;;;;;22.90;47.80;;;;;;1540553;74;802;-58
2021/04/21 06:06:30;;;;;;;;;;;23.00;47.80;;;;;;1544655;74;1935;-59
2021/04/21 06:08:32;;;;;;;;;;;23.00;47.20;;;;;;1542574;74;733;-58
2021/04/21 06:10:34;;;;;;;;;;;23.10;47.10;;;;;;1547900;74;1080;-56
2021/04/21 06:12:36;;;;;;;;;;;23.10;46.70;;;;;;1547058;74;780;-55
2021/04/21 06:14:38;;;;;;;;;;;23.20;46.90;;;;;;1555016;74;720;-59
2021/04/21 06:16:40;;;;;;;;;;;23.20;47.00;;;;;;1552958;74;752;-59
2021/04/21 06:18:42;;;;;;;;;;;23.10;46.60;;;;;;1556523;74;1162;-59
2021/04/21 06:20:44;;;;;;;;;;;23.20;46.30;;;;;;1542608;74;671;-60
2021/04/21 06:22:47;;;;;;;;;;;23.20;46.00;;;;;;1548574;74;710;-59
2021/04/21 06:24:49;;;;;;;;;;;23.40;45.70;;;;;;1553306;74;1414;-57
2021/04/21 06:26:51;;;;;;;;;;;23.40;45.20;;;;;;1531523;75;1943;-57
2021/04/21 06:29:07;;;;;;;;;;;23.60;44.90;;;;;;1531660;76;1122;-54
2021/04/21 06:31:12;;;;;;;;;;;23.60;44.70;;;;;;1550170;74;1579;-58
2021/04/21 06:33:14;;;;;;;;;;;23.70;44.40;;;;;;1551608;74;780;-58
2021/04/21 06:35:16;;;;;;;;;;;23.70;44.20;;;;;;1547702;74;686;-57
2021/04/21 06:37:18;;;;;;;;;;;23.80;44.00;;;;;;1560237;74;868;-57
2021/04/21 06:39:22;;;;;;;;;;;23.90;43.60;;;;;;1561490;74;1116;-56
2021/04/21 06:41:26;;;;;;;;;;;23.90;43.20;;;;;;1557321;74;1682;-58
2021/04/21 06:43:29;;;;;;;;;;;23.90;43.40;;;;;;1552947;74;677;-58
2021/04/21 06:45:32;;;;;;;;;;;24.00;43.40;;;;;;1557499;74;713;-58
2021/04/21 06:47:34;;;;;;;;;;;24.00;43.60;;;;;;1552833;74;1956;-58
2021/04/21 06:49:35;;;;;;;;;;;24.00;44.00;;;;;;1546095;74;1125;-59
2021/04/21 06:51:37;;;;;;;;;;;24.00;44.10;;;;;;1550534;74;794;-59
2021/04/21 06:53:39;;;;;;;;;;;24.10;44.60;;;;;;1556778;74;834;-59
2021/04/21 06:55:41;;;;;;;;;;;24.10;44.80;;;;;;1567999;74;697;-57
2021/04/21 06:57:43;;;;;;;;;;;24.10;45.10;;;;;;1571971;74;685;-58
2021/04/21 06:59:45;;;;;;;;;;;24.20;46.00;;;;;;1572066;74;1147;-57
2021/04/21 07:01:50;;;;;;;;;;;24.20;46.40;;;;;;1574258;74;884;-54
2021/04/21 07:03:52;;;;;;;;;;;24.30;46.40;;;;;;1565146;74;745;-59
2021/04/21 07:05:54;;;;;;;;;;;24.40;46.40;;;;;;1569315;74;772;-59
2021/04/21 07:08:00;;;;;;;;;;;24.30;46.30;;;;;;1562239;74;864;-59
2021/04/21 07:10:02;;;;;;;;;;;24.40;46.00;;;;;;1558248;74;1147;-57
2021/04/21 07:12:04;;;;;;;;;;;24.40;45.90;;;;;;1553723;74;672;-58
2021/04/21 07:14:06;;;;;;;;;;;24.50;45.80;;;;;;1568382;74;837;-57
2021/04/21 07:16:21;;;;;;;;;;;24.50;45.60;;;;;;1566431;74;778;-56
2021/04/21 07:18:24;;;;;;;;;;;24.50;45.50;;;;;;1563519;74;747;-59
2021/04/21 07:20:26;;;;;;;;;;;24.50;45.40;;;;;;1569338;74;1137;-53
2021/04/21 07:22:28;;;;;;;;;;;24.50;45.30;;;;;;1563880;74;801;-57
2021/04/21 07:24:31;;;;;;;;;;;24.50;45.10;;;;;;1557643;74;773;-59
2021/04/21 07:26:35;;;;;;;;;;;24.50;45.00;;;;;;1559865;74;1907;-57
2021/04/21 07:28:37;;;;;;;;;;;24.50;44.90;;;;;;1561300;74;705;-56
2021/04/21 07:30:58;;;;;;;;;;;24.50;44.70;;;;;;1568502;74;1111;-59
2021/04/21 07:33:00;;;;;;;;;;;24.50;44.70;;;;;;1510215;76;706;-61
2021/04/21 07:35:03;;;;;;;;;;;24.50;44.50;;;;;;1534245;76;772;-61
2021/04/21 07:37:05;;;;;;;;;;;24.50;44.50;;;;;;1541421;76;588;-56
2021/04/21 07:39:07;;;;;;;;;;;24.50;44.40;;;;;;1540177;76;1194;-58
2021/04/21 07:41:09;;;;;;;;;;;24.50;44.30;;;;;;1545228;76;775;-59
2021/04/21 07:43:12;;;;;;;;;;;24.50;44.20;;;;;;1581655;74;722;-57
2021/04/21 07:45:14;;;;;;;;;;;24.50;44.10;;;;;;1572124;74;700;-56
2021/04/21 07:47:16;;;;;;;;;;;24.50;44.00;;;;;;1567436;74;1908;-60
2021/04/21 07:49:18;;;;;;;;;;;24.50;43.90;;;;;;1559153;74;1132;-54
2021/04/21 07:51:23;;;;;;;;;;;24.50;43.90;;;;;;1535871;75;1109;-57
2021/04/21 07:53:25;;;;;;;;;;;24.50;43.90;;;;;;1573427;74;2219;-62
2021/04/21 07:55:27;;;;;;;;;;;24.50;43.70;;;;;;1573441;74;779;-59
2021/04/21 07:57:29;;;;;;;;;;;24.50;43.70;;;;;;1571989;74;780;-59
2021/04/21 07:59:32;;;;;;;;;;;24.50;43.80;;;;;;1571868;74;1141;-57
2021/04/21 08:01:34;;;;;;;;;;;24.50;43.70;;;;;;1567087;74;816;-60
2021/04/21 08:03:36;;;;;;;;;;;24.50;43.60;;;;;;1567335;74;791;-62
2021/04/21 08:05:39;;;;;;;;;;;24.40;43.70;;;;;;1574345;74;919;-61
2021/04/21 08:07:42;;;;;;;;;;;24.50;43.70;;;;;;1563613;74;1992;-59
2021/04/21 08:09:45;;;;;;;;;;;24.40;43.50;;;;;;1562571;74;1192;-59
2021/04/21 08:11:47;;;;;;;;;;;24.40;43.60;;;;;;1565481;74;1132;-61
2021/04/21 08:13:49;;;;;;;;;;;24.40;43.60;;;;;;1571317;74;779;-58
2021/04/21 08:15:51;;;;;;;;;;;24.40;43.40;;;;;;1561270;74;737;-62
2021/04/21 08:17:57;;;;;;;;;;;24.40;43.40;;;;;;1569260;74;699;-61
2021/04/21 08:19:59;;;;;;;;;;;24.50;43.40;;;;;;1565842;74;1140;-59
2021/04/21 08:22:01;;;;;;;;;;;24.50;43.30;;;;;;1570163;74;679;-58
2021/04/21 08:24:07;;;;;;;;;;;24.60;43.20;;;;;;1562468;74;795;-61
2021/04/21 08:26:09;;;;;;;;;;;24.50;43.10;;;;;;1572965;74;1611;-62
2021/04/21 08:28:11;;;;;;;;;;;24.50;43.10;;;;;;1568556;74;1930;-61
2021/04/21 08:30:14;;;;;;;;;;;24.50;43.00;;;;;;1574224;74;1131;-60
2021/04/21 08:32:27;;;;;;;;;;;24.60;43.00;;;;;;1569433;74;779;-59
2021/04/21 08:34:28;;;;;;;;;;;24.50;43.00;;;;;;1570919;74;1519;-61
2021/04/21 08:36:30;;;;;;;;;;;24.60;42.90;;;;;;1570939;74;784;-60
2021/04/21 08:38:32;;;;;;;;;;;24.60;42.90;;;;;;1562495;74;800;-60
2021/04/21 08:40:38;;;;;;;;;;;24.60;42.80;;;;;;1562824;74;1226;-59
2021/04/21 08:42:38;;;;;;;;;;;24.60;42.70;;;;;;1572058;74;1412;-60
2021/04/21 08:44:41;;;;;;;;;;;24.60;42.60;;;;;;1573954;74;825;-58
2021/04/21 08:46:43;;;;;;;;;;;24.60;42.50;;;;;;1572149;74;1908;-58
2021/04/21 08:48:45;;;;;;;;;;;24.60;42.60;;;;;;1567749;74;1102;-60
2021/04/21 08:50:47;;;;;;;;;;;24.60;42.50;;;;;;1574095;74;712;-58
2021/04/21 08:52:51;;;;;;;;;;;24.70;42.60;;;;;;1569416;74;838;-58
2021/04/21 08:54:54;;;;;;;;;;;24.60;42.50;;;;;;1569953;74;1119;-61
2021/04/21 08:56:56;;;;;;;;;;;24.60;42.40;;;;;;1576008;74;764;-61
2021/04/21 08:58:57;;;;;;;;;;;24.60;42.40;;;;;;1570407;74;1119;-60
2021/04/21 09:01:00;;;;;;;;;;;24.60;42.30;;;;;;1573911;74;759;-60
2021/04/21 09:03:02;;;;;;;;;;;24.60;42.40;;;;;;1564018;74;700;-60
2021/04/21 09:05:04;;;;;;;;;;;24.60;42.30;;;;;;1570292;74;805;-58
2021/04/21 09:07:06;;;;;;;;;;;24.60;42.30;;;;;;1566397;74;1914;-59
2021/04/21 09:09:08;;;;;;;;;;;24.60;42.30;;;;;;1571902;74;1156;-60
2021/04/21 09:11:10;;;;;;;;;;;24.60;42.30;;;;;;1573232;74;884;-60
2021/04/21 09:13:13;;;;;;;;;;;24.60;42.30;;;;;;1570327;74;724;-61
2021/04/21 09:15:15;;;;;;;;;;;24.60;42.30;;;;;;1562899;74;722;-58
2021/04/21 09:17:20;;;;;;;;;;;24.50;42.30;;;;;;1572389;74;769;-59
2021/04/21 09:19:21;;;;;;;;;;;24.60;42.20;;;;;;1569240;74;1603;-62
2021/04/21 09:21:26;;;;;;;;;;;24.50;42.20;;;;;;1573041;74;710;-56
2021/04/21 09:23:41;;;;;;;;;;;24.50;42.20;;;;;;1570354;74;1715;-62
2021/04/21 09:25:43;;;;;;;;;;;24.50;42.10;;;;;;1566909;74;702;-59
2021/04/21 09:27:45;;;;;;;;;;;24.50;42.10;;;;;;1571195;74;1957;-61
2021/04/21 09:29:47;;;;;;;;;;;24.50;42.20;;;;;;1545996;75;1142;-60
2021/04/21 09:31:49;;;;;;;;;;;24.50;42.20;;;;;;1572721;74;718;-58
2021/04/21 09:33:52;;;;;;;;;;;24.50;42.20;;;;;;1542210;75;1196;-60
2021/04/21 09:35:54;;;;;;;;;;;24.50;42.20;;;;;;1551253;74;1190;-62
2021/04/21 09:38:04;;;;;;;;;;;24.40;42.00;;;;;;1569257;74;797;-57
2021/04/21 09:40:06;;;;;;;;;;;24.50;42.10;;;;;;1572823;74;1144;-58
2021/04/21 09:42:08;;;;;;;;;;;24.40;42.00;;;;;;1567947;74;747;-60
2021/04/21 09:44:17;;;;;;;;;;;24.40;41.90;;;;;;1565301;74;722;-59
2021/04/21 09:46:20;;;;;;;;;;;24.30;41.90;;;;;;1572979;74;770;-60
2021/04/21 09:48:31;;;;;;;;;;;24.40;41.90;;;;;;1562515;74;1959;-60
2021/04/21 09:50:32;;;;;;;;;;;24.40;41.90;;;;;;1570428;74;1626;-60
2021/04/21 09:52:34;;;;;;;;;;;24.30;41.90;;;;;;1566371;74;722;-58
2021/04/21 09:54:37;;;;;;;;;;;24.40;41.80;;;;;;1572227;74;869;-60
2021/04/21 09:56:39;;;;;;;;;;;24.40;41.80;;;;;;1573196;74;801;-60
2021/04/21 09:58:47;;;;;;;;;;;24.40;41.80;;;;;;1573260;74;776;-60
2021/04/21 10:00:49;;;;;;;;;;;24.30;41.80;;;;;;1572781;74;896;-58
2021/04/21 10:02:51;;;;;;;;;;;24.30;41.80;;;;;;1564150;74;759;-60
2021/04/21 10:04:53;;;;;;;;;;;24.30;41.70;;;;;;1561928;74;723;-60
2021/04/21 10:06:56;;;;;;;;;;;24.30;41.60;;;;;;1567835;74;732;-60
2021/04/21 10:08:58;;;;;;;;;;;24.30;41.60;;;;;;1572826;74;2450;-57
2021/04/21 10:11:01;;;;;;;;;;;24.30;41.60;;;;;;1571580;74;741;-58
2021/04/21 10:13:13;;;;;;;;;;;24.30;41.60;;;;;;1571817;74;762;-60
2021/04/21 10:15:15;;;;;;;;;;;24.20;41.50;;;;;;1554910;74;693;-60
2021/04/21 10:17:17;;;;;;;;;;;24.30;41.60;;;;;;1563735;74;745;-60
2021/04/21 10:19:19;;;;;;;;;;;24.20;41.30;;;;;;1560853;74;1138;-61
2021/04/21 10:21:21;;;;;;;;;;;24.20;41.20;;;;;;1569028;74;714;-58
2021/04/21 10:23:23;;;;;;;;;;;24.20;41.20;;;;;;1567132;74;750;-59
2021/04/21 10:25:25;;;;;;;;;;;24.20;41.30;;;;;;1567925;74;634;-60
2021/04/21 10:27:27;;;;;;;;;;;24.20;41.20;;;;;;1566202;74;1911;-60
2021/04/21 10:29:29;;;;;;;;;;;24.20;41.20;;;;;;1569870;74;1129;-62
2021/04/21 10:31:31;;;;;;;;;;;24.20;41.20;;;;;;1571326;74;746;-58
2021/04/21 10:33:33;;;;;;;;;;;24.20;41.20;;;;;;1568087;74;880;-58
2021/04/21 10:35:35;;;;;;;;;;;24.10;41.10;;;;;;1568264;74;683;-60
2021/04/21 10:37:37;;;;;;;;;;;24.10;41.00;;;;;;1568626;74;680;-60
2021/04/21 10:39:39;;;;;;;;;;;24.00;41.20;;;;;;1569484;74;1150;-60
2021/04/21 10:41:44;;;;;;;;;;;24.10;41.40;;;;;;1567152;74;765;-61
2021/04/21 10:43:45;;;;;;;;;;;24.10;41.40;;;;;;1563985;74;1629;-61
2021/04/21 10:45:48;;;;;;;;;;;24.10;41.50;;;;;;1558141;74;721;-59
2021/04/21 10:47:51;;;;;;;;;;;24.00;41.20;;;;;;1562565;74;1935;-58
2021/04/21 10:50:04;;;;;;;;;;;24.00;41.20;;;;;;1564514;74;1123;-58
2021/04/21 10:52:16;;;;;;;;;;;24.00;41.20;;;;;;1571195;74;664;-60
2021/04/21 10:54:18;;;;;;;;;;;24.00;41.10;;;;;;1574253;74;701;-57
2021/04/21 10:56:21;;;;;;;;;;;23.90;41.10;;;;;;1539955;75;1228;-59
2021/04/21 10:58:23;;;;;;;;;;;23.90;41.20;;;;;;1573315;74;731;-59
2021/04/21 11:00:26;;;;;;;;;;;23.90;41.20;;;;;;1577467;74;1174;-60
2021/04/21 11:02:44;;;;;;;;;;;24.00;41.20;;;;;;1574356;74;691;-59
2021/04/21 11:05:02;;;;;;;;;;;23.90;41.20;;;;;;1573357;74;721;-60
2021/04/21 11:07:05;;;;;;;;;;;23.90;41.30;;;;;;1560322;74;799;-59
2021/04/21 11:09:10;;;;;;;;;;;23.90;41.20;;;;;;1569758;74;1931;-60
2021/04/21 11:11:12;;;;;;;;;;;23.80;41.10;;;;;;1575832;74;760;-60
2021/04/21 11:13:15;;;;;;;;;;;23.90;41.20;;;;;;1542093;75;1245;-60
2021/04/21 11:15:35;;;;;;;;;;;23.80;41.00;;;;;;1573956;74;849;-61
2021/04/21 11:17:55;;;;;;;;;;;23.80;40.90;;;;;;1566083;74;696;-60
2021/04/21 11:19:57;;;;;;;;;;;23.70;40.60;;;;;;1568850;74;1183;-60
2021/04/21 11:22:17;;;;;;;;;;;23.80;40.50;;;;;;1573515;74;764;-60
2021/04/21 11:24:20;;;;;;;;;;;23.70;40.20;;;;;;1573721;74;815;-60
2021/04/21 11:26:27;;;;;;;;;;;23.70;40.10;;;;;;1572506;74;743;-61
2021/04/21 11:28:47;;;;;;;;;;;23.80;40.10;;;;;;1573322;74;1906;-58
2021/04/21 11:30:51;;;;;;;;;;;23.80;40.10;;;;;;1572456;74;720;-58
2021/04/21 11:32:52;;;;;;;;;;;23.70;40.10;;;;;;1573967;74;731;-59
2021/04/21 11:34:54;;;;;;;;;;;23.70;40.10;;;;;;1564375;74;862;-59
2021/04/21 11:36:57;;;;;;;;;;;23.70;40.10;;;;;;1565382;74;691;-59
2021/04/21 11:38:58;;;;;;;;;;;23.80;40.20;;;;;;1566544;74;1147;-61
2021/04/21 11:41:18;;;;;;;;;;;23.70;40.30;;;;;;1566482;74;729;-59
2021/04/21 11:43:20;;;;;;;;;;;23.80;40.20;;;;;;1579539;74;760;-59
2021/04/21 11:45:30;;;;;;;;;;;23.70;40.40;;;;;;1560832;74;708;-58
2021/04/21 11:47:33;;;;;;;;;;;23.60;40.10;;;;;;1568489;74;1923;-60
2021/04/21 11:49:53;;;;;;;;;;;23.70;40.10;;;;;;1567735;74;1221;-60
2021/04/21 11:51:55;;;;;;;;;;;23.70;40.00;;;;;;1571754;74;844;-60
2021/04/21 11:53:58;;;;;;;;;;;23.70;40.00;;;;;;1574080;74;783;-61
2021/04/21 11:56:02;;;;;;;;;;;23.80;40.00;;;;;;1573925;74;804;-61
2021/04/21 11:58:08;;;;;;;;;;;23.70;40.10;;;;;;1569810;74;688;-57
2021/04/21 12:00:11;;;;;;;;;;;23.70;40.00;;;;;;1573963;74;1113;-60
2021/04/21 12:02:13;;;;;;;;;;;23.70;40.00;;;;;;1574631;74;756;-59
2021/04/21 12:04:15;;;;;;;;;;;23.70;39.80;;;;;;1568369;74;750;-58
2021/04/21 12:06:18;;;;;;;;;;;23.70;39.70;;;;;;1572241;74;762;-60
2021/04/21 12:08:20;;;;;;;;;;;23.80;39.70;;;;;;1571632;74;1904;-57
2021/04/21 12:10:23;;;;;;;;;;;23.70;39.60;;;;;;1569043;74;1165;-58
2021/04/21 12:12:25;;;;;;;;;;;23.70;39.60;;;;;;1572049;74;737;-59
2021/04/21 12:14:27;;;;;;;;;;;23.70;39.70;;;;;;1560253;74;750;-58
2021/04/21 12:16:29;;;;;;;;;;;23.70;39.60;;;;;;1573006;74;672;-58
2021/04/21 12:18:33;;;;;;;;;;;23.60;39.40;;;;;;1574773;74;664;-58
2021/04/21 12:20:35;;;;;;;;;;;23.60;39.40;;;;;;1569945;74;1103;-55
2021/04/21 12:22:40;;;;;;;;;;;23.60;39.70;;;;;;1573558;74;816;-57
2021/04/21 12:24:42;;;;;;;;;;;23.60;39.40;;;;;;1570243;74;688;-60